Time;durP1;ratioP1;P1;durP2;ratioP2;P2;SDS_P1;SDS_P2;PMS_P1;PMS_P2;Temp;Humidity;BMP_temperature;BMP_pressure;BME280_temperature;BME280_humidity;BME280_pressure;Samples;Min_cycle;Max_cycle;Signal;HPM_P1;HPM_P2
2021/01/04 00:00:10;;;;;;;11.57;8.15;;;1.10;99.90;;;;;;5005985;28;20069;-72
2021/01/04 00:03:13;;;;;;;9.95;6.70;;;1.10;99.90;;;;;;5008715;28;20525;-73
2021/01/04 00:05:49;;;;;;;9.18;6.10;;;1.20;99.90;;;;;;5008848;28;20100;-74
2021/01/04 00:08:45;;;;;;;10.73;6.70;;;1.20;99.90;;;;;;4990733;28;20105;-73
2021/01/04 00:11:38;;;;;;;10.60;6.85;;;1.30;99.90;;;;;;5008363;28;20483;-73
2021/01/04 00:14:23;;;;;;;10.27;6.70;;;1.20;99.90;;;;;;5008148;28;20104;-72
2021/01/04 00:17:12;;;;;;;10.30;7.55;;;1.20;99.90;;;;;;5004607;28;20254;-72
2021/01/04 00:19:54;;;;;;;9.82;6.25;;;1.20;99.90;;;;;;5006193;28;20096;-74
2021/01/04 00:22:33;;;;;;;10.02;6.78;;;1.20;99.90;;;;;;5008832;28;20133;-73
2021/01/04 00:25:28;;;;;;;11.35;7.57;;;1.20;99.90;;;;;;5007776;28;20129;-73
2021/01/04 00:28:05;;;;;;;10.98;7.15;;;1.20;99.90;;;;;;5005913;28;20050;-73
2021/01/04 00:30:43;;;;;;;11.07;6.85;;;1.10;99.90;;;;;;5008116;28;20050;-73
2021/01/04 00:33:33;;;;;;;9.77;6.57;;;1.20;99.90;;;;;;5004209;28;20050;-73
2021/01/04 00:36:04;;;;;;;14.57;9.02;;;1.10;99.90;;;;;;5010268;28;20435;-74
2021/01/04 00:38:55;;;;;;;14.60;9.27;;;1.10;99.90;;;;;;5008033;28;20499;-72
2021/01/04 00:41:29;;;;;;;11.65;7.57;;;1.00;99.90;;;;;;5012460;28;20078;-73
2021/01/04 00:43:57;;;;;;;11.52;7.60;;;1.00;99.90;;;;;;5011005;28;20038;-74
2021/01/04 00:46:42;;;;;;;9.18;6.25;;;1.00;99.90;;;;;;5010281;28;20490;-73
2021/01/04 00:49:31;;;;;;;11.88;7.15;;;1.00;99.90;;;;;;5011002;28;20096;-72
2021/01/04 00:52:33;;;;;;;14.02;8.68;;;1.10;99.90;;;;;;5009189;28;20108;-72
2021/01/04 00:55:21;;;;;;;10.07;7.43;;;1.10;99.90;;;;;;5012295;28;20099;-72
2021/01/04 00:57:55;;;;;;;11.05;7.45;;;1.10;99.90;;;;;;5005320;28;20073;-72
2021/01/04 01:00:23;;;;;;;20.92;11.57;;;1.10;99.90;;;;;;5012447;28;20081;-72
2021/01/04 01:03:27;;;;;;;11.73;7.45;;;1.10;99.90;;;;;;5010989;28;20373;-72
2021/01/04 01:06:18;;;;;;;10.55;7.30;;;1.10;99.90;;;;;;5021609;28;20088;-73
2021/01/04 01:08:45;;;;;;;11.50;7.57;;;1.20;99.90;;;;;;5012123;28;20042;-73
2021/01/04 01:11:19;;;;;;;12.98;9.15;;;1.20;99.90;;;;;;5008845;28;20073;-73
2021/01/04 01:13:51;;;;;;;13.40;8.48;;;1.20;99.90;;;;;;5008463;28;20076;-74
2021/01/04 01:16:34;;;;;;;12.75;8.43;;;1.20;99.90;;;;;;5012236;28;20053;-74
2021/01/04 01:19:15;;;;;;;11.80;8.77;;;1.20;99.90;;;;;;5011644;28;20136;-74
2021/01/04 01:21:45;;;;;;;14.95;9.45;;;1.30;99.90;;;;;;5012070;28;20132;-74
2021/01/04 01:24:13;;;;;;;21.75;13.57;;;1.30;99.90;;;;;;5012050;28;20069;-74
2021/01/04 01:27:33;;;;;;;13.57;9.10;;;1.30;99.90;;;;;;5012181;28;20085;-74
2021/01/04 01:30:14;;;;;;;13.05;8.73;;;1.30;99.90;;;;;;4911336;29;20044;-73
2021/01/04 01:32:42;;;;;;;13.13;8.55;;;1.30;99.90;;;;;;5001729;28;20136;-74
2021/01/04 01:35:28;;;;;;;75.78;34.70;;;1.20;99.90;;;;;;5010655;28;20080;-74
2021/01/04 01:38:34;;;;;;;143.90;60.83;;;1.20;99.90;;;;;;5010718;28;20053;-74
2021/01/04 01:41:17;;;;;;;27.00;16.73;;;1.20;99.90;;;;;;5009345;28;20503;-74
2021/01/04 01:44:03;;;;;;;33.40;21.30;;;1.20;99.90;;;;;;5002997;28;20077;-74
2021/01/04 01:47:03;;;;;;;16.77;11.27;;;1.20;99.90;;;;;;4997408;28;20050;-73
2021/01/04 01:49:48;;;;;;;14.20;9.32;;;1.10;99.90;;;;;;5002456;28;20125;-74
2021/01/04 01:52:27;;;;;;;12.02;8.15;;;1.20;99.90;;;;;;5011211;28;20174;-73
2021/01/04 01:55:20;;;;;;;13.02;8.05;;;1.20;99.90;;;;;;5010410;28;20530;-74
2021/01/04 01:58:17;;;;;;;19.50;11.32;;;1.30;99.90;;;;;;5009140;28;20147;-74
2021/01/04 02:01:02;;;;;;;18.80;13.73;;;1.20;99.90;;;;;;5002680;28;20525;-74
2021/01/04 02:03:40;;;;;;;16.10;10.77;;;1.10;99.90;;;;;;5003088;28;20642;-74
2021/01/04 02:06:25;;;;;;;16.38;11.60;;;1.10;99.90;;;;;;5009805;28;20111;-74
2021/01/04 02:08:58;;;;;;;18.75;12.07;;;1.10;99.90;;;;;;5010183;28;20216;-73
2021/01/04 02:11:40;;;;;;;16.73;11.35;;;1.10;99.90;;;;;;5009895;28;20133;-73
2021/01/04 02:14:15;;;;;;;12.73;8.95;;;1.20;99.90;;;;;;4999665;28;20080;-73
2021/01/04 02:17:15;;;;;;;17.98;12.70;;;1.20;99.90;;;;;;5010755;28;20073;-73
2021/01/04 02:20:02;;;;;;;16.85;11.70;;;1.10;99.90;;;;;;4976158;28;20448;-73
2021/01/04 02:22:38;;;;;;;15.38;11.15;;;1.10;99.90;;;;;;5000375;28;20594;-74
2021/01/04 02:25:04;;;;;;;18.65;11.50;;;1.10;99.90;;;;;;5009978;28;20429;-73
2021/01/04 02:27:36;;;;;;;22.00;13.68;;;1.00;99.90;;;;;;4992093;28;20549;-73
2021/01/04 02:30:04;;;;;;;20.00;13.23;;;1.00;99.90;;;;;;5010866;28;20259;-74
2021/01/04 02:32:31;;;;;;;19.52;12.93;;;0.90;99.90;;;;;;5009551;28;20131;-73
2021/01/04 02:34:58;;;;;;;19.20;12.27;;;0.90;99.90;;;;;;5010673;28;20134;-73
2021/01/04 02:37:26;;;;;;;21.70;15.75;;;0.90;99.90;;;;;;5009824;28;20049;-73
2021/01/04 02:39:56;;;;;;;21.60;13.35;;;1.00;99.90;;;;;;4992488;28;20077;-73
2021/01/04 02:42:35;;;;;;;21.55;14.07;;;0.90;99.90;;;;;;5009600;28;20120;-74
2021/01/04 02:45:17;;;;;;;20.80;14.15;;;0.80;99.90;;;;;;5009145;28;20136;-73
2021/01/04 02:48:01;;;;;;;20.60;12.57;;;0.90;99.90;;;;;;4992133;28;20077;-74
2021/01/04 02:50:57;;;;;;;21.80;14.30;;;0.90;99.90;;;;;;5009468;28;20041;-74
2021/01/04 02:53:37;;;;;;;17.17;10.77;;;0.90;99.90;;;;;;5009343;28;20504;-74
2021/01/04 02:56:31;;;;;;;16.67;10.40;;;0.90;99.90;;;;;;5009899;28;20127;-74
2021/01/04 02:59:06;;;;;;;;;;;1.00;99.90;;;;;;5008335;28;20041;-74
2021/01/04 03:02:02;;;;;;;21.17;13.00;;;0.90;99.90;;;;;;5007530;28;19940;-74
2021/01/04 03:04:32;;;;;;;23.23;11.50;;;1.00;99.90;;;;;;5007211;28;20049;-73
2021/01/04 03:07:09;;;;;;;30.40;17.17;;;1.00;99.90;;;;;;4973107;28;20419;-74
2021/01/04 03:09:40;;;;;;;33.65;18.83;;;1.00;99.90;;;;;;5009148;28;20133;-73
2021/01/04 03:12:15;;;;;;;30.42;16.80;;;0.80;99.90;;;;;;5013633;28;20046;-73
2021/01/04 03:15:15;;;;;;;25.55;14.20;;;0.90;99.90;;;;;;5005821;28;20066;-73
2021/01/04 03:17:57;;;;;;;23.40;14.00;;;0.90;99.90;;;;;;4997168;28;20069;-74
2021/01/04 03:20:26;;;;;;;26.13;14.93;;;0.90;99.90;;;;;;5009816;28;20136;-74
2021/01/04 03:22:53;;;;;;;23.17;13.05;;;0.90;99.90;;;;;;5024017;28;20077;-73
2021/01/04 03:25:55;;;;;;;20.92;13.05;;;1.00;99.90;;;;;;5008436;28;20117;-73
2021/01/04 03:28:23;;;;;;;20.40;11.38;;;1.00;99.90;;;;;;4910225;29;20175;-73
2021/01/04 03:30:50;;;;;;;34.90;18.10;;;1.10;99.90;;;;;;4990797;28;20049;-73
2021/01/04 03:33:16;;;;;;;27.95;15.27;;;1.00;99.90;;;;;;5008561;28;20088;-73
2021/01/04 03:35:43;;;;;;;24.70;13.98;;;0.90;99.90;;;;;;5002301;28;20054;-73
2021/01/04 03:38:10;;;;;;;31.85;16.63;;;0.80;99.90;;;;;;5009053;28;20073;-74
2021/01/04 03:40:36;;;;;;;27.13;16.42;;;0.90;99.90;;;;;;5009556;28;20149;-73
2021/01/04 03:43:03;;;;;;;22.20;13.65;;;0.80;99.90;;;;;;5008748;28;20067;-73
2021/01/04 03:45:30;;;;;;;27.35;15.02;;;0.80;99.90;;;;;;5007556;28;20053;-73
2021/01/04 03:47:56;;;;;;;24.85;14.00;;;0.80;99.90;;;;;;5007718;28;20098;-73
2021/01/04 03:50:22;;;;;;;25.23;13.90;;;0.80;99.90;;;;;;5008723;28;20133;-74
2021/01/04 03:52:49;;;;;;;27.48;13.98;;;0.90;99.90;;;;;;5007863;28;20050;-74
2021/01/04 03:55:16;;;;;;;17.48;11.10;;;0.90;99.90;;;;;;5008431;28;20132;-74
2021/01/04 03:57:44;;;;;;;30.52;16.35;;;1.00;99.90;;;;;;5007433;28;20137;-73
2021/01/04 04:00:12;;;;;;;35.75;18.65;;;1.00;99.90;;;;;;5002976;28;20148;-73
2021/01/04 04:02:38;;;;;;;34.20;18.45;;;0.90;99.90;;;;;;5008545;28;20081;-74
2021/01/04 04:05:06;;;;;;;26.48;15.88;;;0.90;99.90;;;;;;4990524;28;20046;-73
2021/01/04 04:07:33;;;;;;;26.58;15.82;;;0.80;99.90;;;;;;5007542;28;20557;-73
2021/01/04 04:10:00;;;;;;;27.63;15.95;;;0.90;99.90;;;;;;5008875;28;20127;-73
2021/01/04 04:12:32;;;;;;;25.27;15.23;;;1.00;99.90;;;;;;5003623;28;20077;-73
2021/01/04 04:14:58;;;;;;;27.77;14.50;;;1.10;99.90;;;;;;5008945;28;20104;-73
2021/01/04 04:17:25;;;;;;;26.08;14.13;;;1.00;99.90;;;;;;5006883;28;20551;-72
2021/01/04 04:19:51;;;;;;;25.77;15.15;;;1.10;99.90;;;;;;4986793;28;20504;-73
2021/01/04 04:22:18;;;;;;;21.02;12.63;;;1.10;99.90;;;;;;5009086;28;20170;-73
2021/01/04 04:24:46;;;;;;;22.67;13.25;;;1.10;99.90;;;;;;5007777;28;20112;-73
2021/01/04 04:27:14;;;;;;;34.00;16.98;;;1.10;99.90;;;;;;4988729;28;20148;-73
2021/01/04 04:29:42;;;;;;;33.53;16.75;;;1.10;99.90;;;;;;5008667;28;20562;-72
2021/01/04 04:32:10;;;;;;;26.45;15.02;;;1.20;99.90;;;;;;4990818;28;20175;-73
2021/01/04 04:34:37;;;;;;;28.50;15.38;;;1.10;99.90;;;;;;5006012;28;20131;-73
2021/01/04 04:37:05;;;;;;;32.13;16.10;;;1.20;99.90;;;;;;5009259;28;20082;-73
2021/01/04 04:39:32;;;;;;;27.80;15.85;;;1.20;99.90;;;;;;5007004;28;20475;-73
2021/01/04 04:42:03;;;;;;;27.35;14.32;;;1.20;99.90;;;;;;5008485;28;20058;-73
2021/01/04 04:44:33;;;;;;;23.83;13.18;;;1.20;99.90;;;;;;5008228;28;20484;-73
2021/01/04 04:47:27;;;;;;;25.70;14.38;;;1.20;99.90;;;;;;5006229;28;20076;-73
2021/01/04 04:50:16;;;;;;;33.17;16.30;;;1.20;99.90;;;;;;5007662;28;20208;-73
2021/01/04 04:52:51;;;;;;;39.58;17.38;;;1.10;99.90;;;;;;5009078;28;20524;-73
2021/01/04 04:55:50;;;;;;;27.67;14.60;;;1.00;99.90;;;;;;5007703;28;20089;-73
2021/01/04 04:58:38;;;;;;;32.67;16.75;;;0.90;99.90;;;;;;5005673;28;20046;-73
2021/01/04 05:01:23;;;;;;;32.50;16.13;;;1.00;99.90;;;;;;5006990;28;20085;-73
2021/01/04 05:04:17;;;;;;;31.42;16.25;;;1.00;99.90;;;;;;5000016;28;20141;-73
2021/01/04 05:06:46;;;;;;;29.08;14.95;;;1.00;99.90;;;;;;5007004;28;20122;-73
2021/01/04 05:09:28;;;;;;;35.25;14.93;;;1.00;99.90;;;;;;5007515;28;20042;-73
2021/01/04 05:12:17;;;;;;;30.08;15.00;;;1.00;99.90;;;;;;5007162;28;20065;-73
2021/01/04 05:14:57;;;;;;;27.83;14.80;;;1.00;99.90;;;;;;5006615;28;20563;-73
2021/01/04 05:18:04;;;;;;;26.95;13.68;;;1.00;99.90;;;;;;5000797;28;20120;-73
2021/01/04 05:21:00;;;;;;;28.60;14.30;;;1.10;99.90;;;;;;4998022;28;20046;-73
2021/01/04 05:23:45;;;;;;;34.13;15.98;;;1.10;99.90;;;;;;4992023;28;20427;-73
2021/01/04 05:26:29;;;;;;;29.38;14.65;;;1.10;99.90;;;;;;5011139;28;20092;-73
2021/01/04 05:29:19;;;;;;;34.85;15.52;;;1.10;99.90;;;;;;5007323;28;20189;-73
2021/01/04 05:32:21;;;;;;;33.63;15.45;;;1.10;99.90;;;;;;5009589;28;20042;-73
2021/01/04 05:34:50;;;;;;;27.27;13.93;;;1.00;99.90;;;;;;5011350;28;20073;-73
2021/01/04 05:37:34;;;;;;;23.27;12.68;;;1.10;99.90;;;;;;5010800;28;20153;-73
2021/01/04 05:40:20;;;;;;;22.55;12.32;;;1.20;99.90;;;;;;5010093;28;20050;-73
2021/01/04 05:43:08;;;;;;;23.65;12.25;;;1.20;99.90;;;;;;5010729;28;20088;-73
2021/01/04 05:45:48;;;;;;;26.67;13.23;;;1.20;99.90;;;;;;5010702;28;20133;-73
2021/01/04 05:48:38;;;;;;;23.38;11.88;;;1.10;99.90;;;;;;5009504;28;20464;-72
2021/01/04 05:51:30;;;;;;;23.35;12.55;;;1.20;99.90;;;;;;5011525;28;20046;-72
2021/01/04 05:53:56;;;;;;;28.58;13.20;;;1.20;99.90;;;;;;5010104;28;20077;-72
2021/01/04 05:56:29;;;;;;;24.88;12.10;;;1.10;99.90;;;;;;5010756;28;20049;-72
2021/01/04 05:59:25;;;;;;;24.75;12.77;;;1.20;99.90;;;;;;5010756;28;20058;-72
2021/01/04 06:02:04;;;;;;;22.67;12.52;;;1.30;99.90;;;;;;4996495;28;20054;-72
2021/01/04 06:04:31;;;;;;;26.77;14.07;;;1.20;99.90;;;;;;5010203;28;20073;-72
2021/01/04 06:07:06;;;;;;;20.50;11.30;;;1.20;99.90;;;;;;5010784;28;20053;-72
2021/01/04 06:09:33;;;;;;;21.10;11.15;;;1.20;99.90;;;;;;5008096;28;20139;-73
2021/01/04 06:12:08;;;;;;;24.40;12.43;;;1.30;99.90;;;;;;5010765;28;20093;-72
2021/01/04 06:14:36;;;;;;;23.17;13.75;;;1.40;99.90;;;;;;5000423;28;20061;-72
2021/01/04 06:17:09;;;;;;;21.45;11.80;;;1.40;99.90;;;;;;5009456;28;20116;-72
2021/01/04 06:19:40;;;;;;;19.38;10.70;;;1.50;99.90;;;;;;5010189;28;20132;-72
2021/01/04 06:22:12;;;;;;;16.10;9.35;;;1.40;99.90;;;;;;5010129;28;20053;-72
2021/01/04 06:24:41;;;;;;;20.30;10.52;;;1.40;99.90;;;;;;5009063;28;20073;-72
2021/01/04 06:27:12;;;;;;;24.60;12.82;;;1.50;99.90;;;;;;5009205;28;20136;-72
2021/01/04 06:29:50;;;;;;;23.52;13.13;;;1.30;99.90;;;;;;5011061;28;20050;-72
2021/01/04 06:32:34;;;;;;;17.70;9.93;;;1.30;99.90;;;;;;5008446;28;20639;-72
2021/01/04 06:35:10;;;;;;;20.52;11.10;;;1.30;99.90;;;;;;5009927;28;20042;-73
2021/01/04 06:37:36;;;;;;;21.27;11.30;;;1.30;99.90;;;;;;5009452;28;20057;-73
2021/01/04 06:40:21;;;;;;;19.17;11.65;;;1.40;99.90;;;;;;5009921;28;20108;-73
2021/01/04 06:42:48;;;;;;;18.65;10.40;;;1.40;99.90;;;;;;5007126;28;20355;-72
2021/01/04 06:45:20;;;;;;;23.05;11.85;;;1.50;99.90;;;;;;5009116;28;20463;-72
2021/01/04 06:47:50;;;;;;;24.73;13.10;;;1.40;99.90;;;;;;5008600;28;20069;-73
2021/01/04 06:50:35;;;;;;;25.60;13.73;;;1.40;99.90;;;;;;5009915;28;20070;-73
2021/01/04 06:53:01;;;;;;;24.42;13.15;;;1.30;99.90;;;;;;5001926;28;20073;-73
2021/01/04 06:55:40;;;;;;;20.35;11.18;;;1.40;99.90;;;;;;5007048;28;20065;-73
2021/01/04 06:58:21;;;;;;;20.30;10.52;;;1.40;99.90;;;;;;5008597;28;20184;-73
2021/01/04 07:01:18;;;;;;;24.20;12.88;;;1.40;99.90;;;;;;5005513;28;20069;-73
2021/01/04 07:04:12;;;;;;;22.95;11.35;;;1.30;99.90;;;;;;4996095;28;20073;-73
2021/01/04 07:06:47;;;;;;;23.50;12.77;;;1.40;99.90;;;;;;5006742;28;20050;-71
2021/01/04 07:09:49;;;;;;;20.67;11.82;;;1.30;99.90;;;;;;5008639;28;20081;-73
2021/01/04 07:12:31;;;;;;;20.40;12.13;;;1.30;99.90;;;;;;5002365;28;20047;-72
2021/01/04 07:15:14;;;;;;;21.10;11.98;;;1.30;99.90;;;;;;5008902;28;20058;-72
2021/01/04 07:18:19;;;;;;;28.80;14.77;;;1.30;99.90;;;;;;5007901;28;20481;-73
2021/01/04 07:20:56;;;;;;;26.98;14.32;;;1.20;99.90;;;;;;5007262;28;20050;-73
2021/01/04 07:23:40;;;;;;;34.67;15.93;;;1.20;99.90;;;;;;5007168;28;20041;-73
2021/01/04 07:26:24;;;;;;;;;;;1.10;99.90;;;;;;5008898;28;20456;-72
2021/01/04 07:29:20;;;;;;;26.88;14.05;;;1.20;99.90;;;;;;4996961;28;19921;-72
2021/01/04 07:31:58;;;;;;;32.78;16.00;;;1.10;99.90;;;;;;5006618;28;20144;-73
2021/01/04 07:34:38;;;;;;;36.20;15.45;;;1.20;99.90;;;;;;4992036;28;20467;-73
2021/01/04 07:37:30;;;;;;;27.58;14.13;;;1.10;99.90;;;;;;5008926;28;20049;-73
2021/01/04 07:40:34;;;;;;;24.50;13.13;;;1.10;99.90;;;;;;5008635;28;20132;-73
2021/01/04 07:43:37;;;;;;;28.75;14.00;;;1.20;99.90;;;;;;5007633;28;20571;-72
2021/01/04 07:46:34;;;;;;;27.40;13.35;;;1.20;99.90;;;;;;5013022;28;20107;-72
2021/01/04 07:49:38;;;;;;;25.27;12.73;;;1.20;99.90;;;;;;5007578;28;20090;-72
2021/01/04 07:52:38;;;;;;;30.65;14.65;;;1.20;99.90;;;;;;5008721;28;20041;-73
2021/01/04 07:55:24;;;;;;;33.45;15.45;;;1.20;99.90;;;;;;5008015;28;20050;-72
2021/01/04 07:58:17;;;;;;;27.38;13.10;;;1.10;99.90;;;;;;5007627;28;20133;-72
2021/01/04 08:01:21;;;;;;;32.65;15.10;;;1.20;99.90;;;;;;4983126;28;20124;-73
2021/01/04 08:04:19;;;;;;;31.55;14.82;;;1.20;99.90;;;;;;5007681;28;20057;-73
2021/01/04 08:06:48;;;;;;;32.33;14.00;;;1.20;99.90;;;;;;5007489;28;20442;-73
2021/01/04 08:09:49;;;;;;;31.67;13.50;;;1.20;99.90;;;;;;5005867;28;20042;-73
2021/01/04 08:12:39;;;;;;;31.10;15.15;;;1.10;99.90;;;;;;5004009;28;20470;-73
2021/01/04 08:15:41;;;;;;;36.03;15.70;;;1.10;99.90;;;;;;4989978;28;20637;-73
2021/01/04 08:18:08;;;;;;;22.23;12.15;;;1.10;99.90;;;;;;4956656;28;20130;-73
2021/01/04 08:20:37;;;;;;;26.90;12.68;;;1.20;99.90;;;;;;5007095;28;20085;-73
2021/01/04 08:23:39;;;;;;;38.33;16.55;;;1.20;99.90;;;;;;5008254;28;20135;-73
2021/01/04 08:26:21;;;;;;;32.17;14.95;;;1.20;99.90;;;;;;5004621;28;20092;-73
2021/01/04 08:29:09;;;;;;;38.72;16.63;;;1.10;99.90;;;;;;5006343;28;20356;-73
2021/01/04 08:31:40;;;;;;;37.20;15.85;;;1.20;99.90;;;;;;5007773;28;20045;-73
2021/01/04 08:34:10;;;;;;;35.75;15.77;;;1.10;99.90;;;;;;5007638;28;21712;-73
2021/01/04 08:36:42;;;;;;;39.00;15.93;;;1.20;99.90;;;;;;4987479;28;20081;-73
2021/01/04 08:39:11;;;;;;;40.33;16.20;;;1.10;99.90;;;;;;5004430;28;20038;-74
2021/01/04 08:41:40;;;;;;;38.03;16.05;;;1.10;99.90;;;;;;5009168;28;20116;-73
2021/01/04 08:44:34;;;;;;;33.15;15.35;;;1.10;99.90;;;;;;5022805;28;20085;-73
2021/01/04 08:47:30;;;;;;;37.00;15.48;;;1.20;99.90;;;;;;5004152;28;20096;-73
2021/01/04 08:50:14;;;;;;;32.40;15.52;;;1.30;99.90;;;;;;5007273;28;20045;-73
2021/01/04 08:52:45;;;;;;;45.13;19.45;;;1.30;99.90;;;;;;5006609;28;20164;-73
2021/01/04 08:55:32;;;;;;;49.03;19.83;;;1.30;99.90;;;;;;5006498;28;20503;-73
2021/01/04 08:58:42;;;;;;;54.17;21.73;;;1.20;99.90;;;;;;5008005;28;20195;-73
2021/01/04 09:01:21;;;;;;;110.18;53.47;;;1.20;99.90;;;;;;4950560;28;20719;-73
2021/01/04 09:03:48;;;;;;;39.13;17.27;;;1.30;99.90;;;;;;4949292;28;20146;-73
2021/01/04 09:06:14;;;;;;;91.57;21.92;;;1.30;99.90;;;;;;4996074;28;20167;-73
2021/01/04 09:08:49;;;;;;;97.20;22.83;;;1.10;99.90;;;;;;5008777;28;20439;-73
2021/01/04 09:11:17;;;;;;;106.70;24.02;;;1.10;99.90;;;;;;5008410;28;20125;-73
2021/01/04 09:13:44;;;;;;;124.22;24.23;;;1.00;99.90;;;;;;5011483;28;20136;-73
2021/01/04 09:16:23;;;;;;;110.10;23.58;;;1.00;99.90;;;;;;5009637;28;20052;-73
2021/01/04 09:18:54;;;;;;;44.53;18.02;;;1.00;99.90;;;;;;5002194;28;20093;-73
2021/01/04 09:21:37;;;;;;;65.72;22.17;;;1.00;99.90;;;;;;5012093;28;20053;-73
2021/01/04 09:24:24;;;;;;;79.30;21.60;;;1.00;99.90;;;;;;5008696;28;20047;-73
2021/01/04 09:26:55;;;;;;;176.63;42.33;;;1.00;99.90;;;;;;4998277;28;20531;-73
2021/01/04 09:29:31;;;;;;;113.63;33.45;;;1.00;99.90;;;;;;5011383;28;20073;-73
2021/01/04 09:32:09;;;;;;;97.93;30.38;;;1.00;99.90;;;;;;5010151;28;20050;-73
2021/01/04 09:34:36;;;;;;;158.88;55.75;;;1.00;99.90;;;;;;4992284;28;20132;-74
2021/01/04 09:37:21;;;;;;;79.90;22.45;;;1.00;99.90;;;;;;5009844;28;20054;-73
2021/01/04 09:39:48;;;;;;;97.63;23.27;;;1.10;99.90;;;;;;5009965;28;20135;-73
2021/01/04 09:42:22;;;;;;;147.13;26.77;;;1.10;99.90;;;;;;5010540;28;20143;-73
2021/01/04 09:44:48;;;;;;;180.18;28.40;;;1.00;99.90;;;;;;5010098;28;20050;-73
2021/01/04 09:47:31;;;;;;;130.07;26.48;;;1.00;99.90;;;;;;5011038;28;20073;-73
2021/01/04 09:50:01;;;;;;;;;;;1.10;99.90;;;;;;5010582;28;20399;-73
2021/01/04 09:52:37;;;;;;;94.03;23.38;;;1.10;99.90;;;;;;5010270;28;19925;-71
2021/01/04 09:55:08;;;;;;;156.38;29.85;;;1.10;99.90;;;;;;5010912;28;20050;-71
2021/01/04 09:57:41;;;;;;;124.00;26.15;;;1.00;99.90;;;;;;5010530;28;20076;-71
2021/01/04 10:00:16;;;;;;;92.57;22.30;;;1.10;99.90;;;;;;4980808;28;20135;-71
2021/01/04 10:02:42;;;;;;;82.57;22.52;;;1.10;99.90;;;;;;4995325;28;20108;-72
2021/01/04 10:05:15;;;;;;;161.80;30.95;;;1.10;99.90;;;;;;5009816;28;20045;-72
2021/01/04 10:07:43;;;;;;;109.67;28.70;;;1.20;99.90;;;;;;5010201;28;20076;-71
2021/01/04 10:10:13;;;;;;;68.45;22.00;;;1.20;99.90;;;;;;5009798;28;20378;-72
2021/01/04 10:12:40;;;;;;;86.30;26.02;;;1.20;99.90;;;;;;5010108;28;20050;-73
2021/01/04 10:15:17;;;;;;;75.25;24.25;;;1.20;99.90;;;;;;5007092;28;20050;-72
2021/01/04 10:18:13;;;;;;;79.43;23.67;;;1.10;99.90;;;;;;5009972;28;20136;-72
2021/01/04 10:20:51;;;;;;;60.55;23.55;;;1.10;99.90;;;;;;5008122;28;20566;-72
2021/01/04 10:23:31;;;;;;;86.88;27.65;;;1.10;99.90;;;;;;5009754;28;20136;-73
2021/01/04 10:26:17;;;;;;;75.15;27.52;;;1.10;99.90;;;;;;5009904;28;20050;-72
2021/01/04 10:28:44;;;;;;;66.45;25.60;;;1.10;99.90;;;;;;5007758;28;20121;-73
2021/01/04 10:31:25;;;;;;;56.28;24.13;;;1.10;99.90;;;;;;5010571;28;20042;-72
2021/01/04 10:34:07;;;;;;;45.80;21.25;;;1.20;99.90;;;;;;5004150;28;20121;-72
2021/01/04 10:36:34;;;;;;;47.42;20.85;;;1.20;99.90;;;;;;5009656;28;20050;-74
2021/01/04 10:39:20;;;;;;;60.35;24.38;;;1.30;99.90;;;;;;5010095;28;20041;-72
2021/01/04 10:41:47;;;;;;;54.88;22.98;;;1.30;99.90;;;;;;5009998;28;20577;-73
2021/01/04 10:44:25;;;;;;;48.58;21.63;;;1.30;99.90;;;;;;5010118;28;20046;-72
2021/01/04 10:47:24;;;;;;;98.63;29.27;;;1.40;99.90;;;;;;5007344;28;20464;-71
2021/01/04 10:49:51;;;;;;;149.40;66.78;;;1.20;99.90;;;;;;5009737;28;20050;-72
2021/01/04 10:52:23;;;;;;;100.55;43.10;;;1.20;99.90;;;;;;5009805;28;20249;-72
2021/01/04 10:54:50;;;;;;;115.13;32.03;;;1.20;99.90;;;;;;4992868;28;20050;-72
2021/01/04 10:57:23;;;;;;;160.57;32.33;;;1.20;99.90;;;;;;5005497;28;20578;-72
2021/01/04 11:00:18;;;;;;;149.63;29.52;;;1.10;99.90;;;;;;5006276;28;20057;-72
2021/01/04 11:02:48;;;;;;;212.70;31.80;;;1.00;99.90;;;;;;5018917;28;20072;-72
2021/01/04 11:05:19;;;;;;;155.27;27.92;;;1.00;99.90;;;;;;5011301;28;20042;-72
2021/01/04 11:07:46;;;;;;;190.57;32.22;;;1.00;99.90;;;;;;5007271;28;20561;-72
2021/01/04 11:10:29;;;;;;;120.70;28.58;;;0.90;99.90;;;;;;5010221;28;20057;-72
2021/01/04 11:12:58;;;;;;;122.00;28.23;;;1.00;99.90;;;;;;5007144;28;20099;-72
2021/01/04 11:15:28;;;;;;;191.00;31.50;;;1.00;99.90;;;;;;5003069;28;20046;-71
2021/01/04 11:18:10;;;;;;;139.00;29.83;;;1.00;99.90;;;;;;5008304;28;20104;-71
2021/01/04 11:20:40;;;;;;;119.90;29.83;;;1.00;99.90;;;;;;5008422;28;20126;-72
2021/01/04 11:23:14;;;;;;;170.77;30.98;;;0.90;99.90;;;;;;5000895;28;20050;-71
2021/01/04 11:25:45;;;;;;;83.93;24.45;;;1.00;99.90;;;;;;5005674;28;20137;-70
2021/01/04 11:28:13;;;;;;;195.15;27.88;;;1.00;99.90;;;;;;5008267;28;20049;-70
2021/01/04 11:30:51;;;;;;;199.32;27.38;;;1.00;99.90;;;;;;5008732;28;20499;-70
2021/01/04 11:33:19;;;;;;;237.95;35.83;;;0.90;99.90;;;;;;5023873;28;20081;-68
2021/01/04 11:35:46;;;;;;;240.32;34.95;;;0.80;99.90;;;;;;5008706;28;20065;-69
2021/01/04 11:38:13;;;;;;;251.20;35.58;;;0.70;99.90;;;;;;5008554;28;20046;-69
2021/01/04 11:40:39;;;;;;;122.18;28.17;;;0.80;99.90;;;;;;5004995;28;20050;-69
2021/01/04 11:43:06;;;;;;;112.00;26.90;;;0.80;99.90;;;;;;5000303;28;20120;-72
2021/01/04 11:45:33;;;;;;;118.32;27.15;;;0.80;99.90;;;;;;5020570;28;20049;-70
2021/01/04 11:47:59;;;;;;;78.80;25.55;;;0.90;99.90;;;;;;5006852;28;20104;-71
2021/01/04 11:50:26;;;;;;;60.08;21.75;;;1.00;99.90;;;;;;5003118;28;20077;-70
2021/01/04 11:52:56;;;;;;;82.72;24.85;;;1.20;99.90;;;;;;5006541;28;20054;-70
2021/01/04 11:55:23;;;;;;;82.00;23.40;;;1.20;99.90;;;;;;5007625;28;20061;-70
2021/01/04 11:57:50;;;;;;;80.18;27.42;;;1.20;99.90;;;;;;5006791;28;20046;-70
2021/01/04 12:00:18;;;;;;;243.77;44.50;;;1.10;99.90;;;;;;5005863;28;20153;-72
2021/01/04 12:02:44;;;;;;;168.57;51.13;;;0.90;99.90;;;;;;4996756;28;20404;-71
2021/01/04 12:05:13;;;;;;;110.90;35.53;;;0.90;99.90;;;;;;5002791;28;20451;-71
2021/01/04 12:07:40;;;;;;;155.93;36.25;;;1.00;99.90;;;;;;5007693;28;20062;-71
2021/01/04 12:10:07;;;;;;;117.82;47.70;;;0.90;99.90;;;;;;5008953;28;20105;-70
2021/01/04 12:12:34;;;;;;;68.32;29.45;;;1.00;99.90;;;;;;5007867;28;20141;-70
2021/01/04 12:15:00;;;;;;;87.78;40.67;;;1.10;99.90;;;;;;4975202;28;20045;-70
2021/01/04 12:17:27;;;;;;;112.25;51.50;;;1.10;99.90;;;;;;5007609;28;20100;-70
2021/01/04 12:19:53;;;;;;;73.13;31.10;;;1.00;99.90;;;;;;5008028;28;20054;-71
2021/01/04 12:22:20;;;;;;;56.38;24.50;;;1.00;99.90;;;;;;5009242;28;20438;-72
2021/01/04 12:24:47;;;;;;;111.15;33.22;;;1.10;99.90;;;;;;4990960;28;20041;-70
2021/01/04 12:27:15;;;;;;;96.03;43.42;;;1.10;99.90;;;;;;5008192;28;20069;-70
2021/01/04 12:29:46;;;;;;;94.38;32.17;;;1.20;99.90;;;;;;5008665;28;20092;-70
2021/01/04 12:32:15;;;;;;;97.65;39.58;;;1.10;99.90;;;;;;5005835;28;20043;-70
2021/01/04 12:34:41;;;;;;;97.72;34.75;;;1.10;99.90;;;;;;5011432;28;20485;-71
2021/01/04 12:37:08;;;;;;;63.75;25.92;;;1.10;99.90;;;;;;5001334;28;20555;-70
2021/01/04 12:39:35;;;;;;;58.67;24.65;;;1.10;99.90;;;;;;5012255;28;20467;-70
2021/01/04 12:42:02;;;;;;;75.88;29.67;;;1.10;99.90;;;;;;5011061;28;20095;-70
2021/01/04 12:44:29;;;;;;;80.57;45.95;;;1.20;99.90;;;;;;5011383;28;20116;-70
2021/01/04 12:46:55;;;;;;;71.75;30.73;;;1.30;99.90;;;;;;5011761;28;20132;-70
2021/01/04 12:49:23;;;;;;;56.67;30.73;;;1.10;99.90;;;;;;5011976;28;20110;-70
2021/01/04 12:51:53;;;;;;;52.42;26.25;;;1.20;99.90;;;;;;5005415;28;20140;-72
2021/01/04 12:54:23;;;;;;;75.38;31.42;;;1.10;99.90;;;;;;5011223;28;20503;-70
2021/01/04 12:56:51;;;;;;;62.47;27.20;;;1.20;99.90;;;;;;4993897;28;20515;-72
2021/01/04 12:59:21;;;;;;;53.10;26.40;;;1.20;99.90;;;;;;5011864;28;20295;-70
2021/01/04 13:01:51;;;;;;;58.58;29.00;;;1.20;99.90;;;;;;5009660;28;20443;-70
2021/01/04 13:04:22;;;;;;;55.00;27.17;;;1.20;99.90;;;;;;5000015;28;20088;-70
2021/01/04 13:06:49;;;;;;;51.80;25.52;;;1.20;99.90;;;;;;5004507;28;21421;-70
2021/01/04 13:09:16;;;;;;;60.85;27.52;;;1.20;99.90;;;;;;5010985;28;20046;-71
2021/01/04 13:11:47;;;;;;;72.72;38.53;;;1.30;99.90;;;;;;5011757;28;20124;-72
2021/01/04 13:14:14;;;;;;;58.42;26.85;;;1.20;99.90;;;;;;5011466;28;20554;-71
2021/01/04 13:16:41;;;;;;;48.22;25.45;;;1.20;99.90;;;;;;5008314;28;20054;-71
2021/01/04 13:19:09;;;;;;;53.30;25.55;;;1.30;99.90;;;;;;5010851;28;20082;-71
2021/01/04 13:21:36;;;;;;;47.85;24.83;;;1.20;99.90;;;;;;5010200;28;20480;-70
2021/01/04 13:24:07;;;;;;;53.97;25.77;;;1.20;99.90;;;;;;5011263;28;20109;-71
2021/01/04 13:26:48;;;;;;;57.33;27.15;;;1.20;99.90;;;;;;5008983;28;20042;-71
2021/01/04 13:29:18;;;;;;;54.83;26.67;;;1.20;99.90;;;;;;5008006;28;20115;-71